createdAt,value
2023-08-02T04:01:09.310Z,987.72
2023-08-02T04:02:09.761Z,987.68
2023-08-02T04:03:08.087Z,987.68
2023-08-02T04:04:08.071Z,987.67
2023-08-02T04:05:07.183Z,987.66
2023-08-02T04:06:08.219Z,987.65
2023-08-02T04:07:08.210Z,987.66
2023-08-02T04:08:08.063Z,987.68
2023-08-02T04:09:08.158Z,987.70
2023-08-02T04:10:08.099Z,987.67
2023-08-02T04:11:08.011Z,987.61
2023-08-02T04:12:08.062Z,987.55
2023-08-02T04:13:07.936Z,987.54
2023-08-02T04:14:08.186Z,987.55
2023-08-02T04:15:07.881Z,987.55
2023-08-02T04:16:08.060Z,987.52
2023-08-02T04:17:07.847Z,987.49
2023-08-02T04:18:07.837Z,987.48
2023-08-02T04:19:08.365Z,987.48
2023-08-02T04:20:09.802Z,987.46
2023-08-02T04:21:08.175Z,987.41
2023-08-02T04:22:08.216Z,987.37
2023-08-02T04:23:07.845Z,987.35
2023-08-02T04:24:09.210Z,987.32
2023-08-02T04:25:07.808Z,987.30
2023-08-02T04:26:07.773Z,987.32
2023-08-02T04:27:07.920Z,987.35
2023-08-02T04:28:08.146Z,987.33
2023-08-02T04:29:08.081Z,987.29
2023-08-02T04:30:07.768Z,987.24
2023-08-02T04:31:07.875Z,987.23
2023-08-02T04:32:08.300Z,987.29
2023-08-02T04:33:08.954Z,987.33
2023-08-02T04:34:07.843Z,987.38
2023-08-02T04:35:07.844Z,987.40
2023-08-02T04:36:07.663Z,987.41
2023-08-02T04:37:07.785Z,987.43
2023-08-02T04:38:07.674Z,987.43
2023-08-02T04:39:07.780Z,987.44
2023-08-02T04:40:07.611Z,987.43
2023-08-02T04:41:07.911Z,987.43
2023-08-02T04:42:07.766Z,987.40
2023-08-02T04:43:07.823Z,987.40
2023-08-02T04:44:07.708Z,987.36
2023-08-02T04:45:07.713Z,987.31
2023-08-02T04:46:07.865Z,987.27
2023-08-02T04:47:07.550Z,987.23
2023-08-02T04:48:07.683Z,987.19
2023-08-02T04:49:07.567Z,987.17
2023-08-02T04:50:07.537Z,987.16
2023-08-02T04:51:07.671Z,987.16
2023-08-02T04:52:07.662Z,987.15
2023-08-02T04:53:07.549Z,987.12
2023-08-02T04:54:07.519Z,987.10
2023-08-02T04:55:07.535Z,987.09
2023-08-02T04:56:07.470Z,987.07
2023-08-02T04:57:08.143Z,987.05
2023-08-02T04:58:08.187Z,987.03
2023-08-02T04:59:10.117Z,987.00
2023-08-02T05:00:11.541Z,986.98
2023-08-02T05:01:07.989Z,986.96
2023-08-02T05:02:08.290Z,986.96
2023-08-02T05:03:07.555Z,986.98
2023-08-02T05:04:07.626Z,986.98
2023-08-02T05:05:07.516Z,986.96
2023-08-02T05:06:07.696Z,986.93
2023-08-02T05:07:07.292Z,986.90
2023-08-02T05:08:07.373Z,986.88
2023-08-02T05:09:07.493Z,986.86
2023-08-02T05:10:07.442Z,986.84
2023-08-02T05:11:12.748Z,986.82
2023-08-02T05:12:08.554Z,986.76
2023-08-02T05:13:08.672Z,986.70
2023-08-02T05:14:07.744Z,986.66
2023-08-02T05:15:07.379Z,986.63
2023-08-02T05:16:07.809Z,986.61
2023-08-02T05:17:07.187Z,986.60
2023-08-02T05:18:07.346Z,986.59
2023-08-02T05:19:08.370Z,986.60
2023-08-02T05:20:09.471Z,986.60
2023-08-02T05:21:07.208Z,986.59
2023-08-02T05:22:07.557Z,986.57
2023-08-02T05:23:12.647Z,986.56
2023-08-02T05:24:07.501Z,986.52
2023-08-02T05:25:08.112Z,986.48
2023-08-02T05:26:07.297Z,986.44
2023-08-02T05:27:07.262Z,986.41
2023-08-02T05:28:07.436Z,986.37
2023-08-02T05:29:08.481Z,986.34
2023-08-02T05:30:07.566Z,986.33
2023-08-02T05:31:07.316Z,986.35
2023-08-02T05:32:07.590Z,986.35
2023-08-02T05:33:08.861Z,986.35
2023-08-02T05:34:07.191Z,986.32
2023-08-02T05:35:07.210Z,986.29
2023-08-02T05:36:07.071Z,986.25
2023-08-02T05:37:07.071Z,986.20
2023-08-02T05:38:07.167Z,986.17
2023-08-02T05:39:08.191Z,986.13
2023-08-02T05:40:07.140Z,986.12
2023-08-02T05:41:07.297Z,986.09
2023-08-02T05:42:07.031Z,986.07
2023-08-02T05:43:07.223Z,986.07
2023-08-02T05:44:07.079Z,986.07
2023-08-02T05:45:08.152Z,986.07
2023-08-02T05:46:07.173Z,986.04
2023-08-02T05:47:07.136Z,985.99
2023-08-02T05:48:07.181Z,985.97
2023-08-02T05:49:06.978Z,985.96
2023-08-02T05:50:07.622Z,985.95
2023-08-02T05:51:07.148Z,985.94
2023-08-02T05:52:07.165Z,985.93
2023-08-02T05:53:06.947Z,985.91
2023-08-02T05:54:07.148Z,985.89
2023-08-02T05:55:07.063Z,985.84
2023-08-02T05:56:06.965Z,985.84
2023-08-02T05:57:07.252Z,985.84
2023-08-02T05:58:08.065Z,985.86
2023-08-02T05:59:07.677Z,985.87
2023-08-02T06:00:06.737Z,985.87
2023-08-02T06:01:07.817Z,985.87
2023-08-02T06:02:06.931Z,985.84
2023-08-02T06:03:07.215Z,985.85
2023-08-02T06:04:08.263Z,985.84
2023-08-02T06:05:06.771Z,985.82
2023-08-02T06:06:06.829Z,985.78
2023-08-02T06:07:06.928Z,985.75
2023-08-02T06:08:06.884Z,985.70
2023-08-02T06:09:09.691Z,985.66
2023-08-02T06:10:06.963Z,985.65
2023-08-02T06:11:07.346Z,985.66
2023-08-02T06:12:06.744Z,985.65
2023-08-02T06:13:06.987Z,985.64
2023-08-02T06:14:06.656Z,985.63
2023-08-02T06:15:06.989Z,985.59
2023-08-02T06:16:07.710Z,985.57
2023-08-02T06:17:06.689Z,985.54
2023-08-02T06:18:06.632Z,985.53
2023-08-02T06:19:06.902Z,985.46
2023-08-02T06:20:06.953Z,985.47
2023-08-02T06:21:06.790Z,985.45
2023-08-02T06:22:06.539Z,985.45
2023-08-02T06:23:06.620Z,985.44
2023-08-02T06:24:06.618Z,985.42
2023-08-02T06:25:06.689Z,985.39
2023-08-02T06:26:06.525Z,985.36
2023-08-02T06:27:06.526Z,985.33
2023-08-02T06:28:06.569Z,985.32
2023-08-02T06:29:06.505Z,985.38
2023-08-02T06:30:06.795Z,985.41
2023-08-02T06:31:06.606Z,985.45
2023-08-02T06:32:06.504Z,985.43
2023-08-02T06:33:06.514Z,985.40
2023-08-02T06:34:06.534Z,985.39
2023-08-02T06:35:06.446Z,985.34
2023-08-02T06:36:06.378Z,985.34
2023-08-02T06:37:06.458Z,985.32
2023-08-02T06:38:06.396Z,985.34
2023-08-02T06:39:06.382Z,985.33
2023-08-02T06:40:06.637Z,985.38
2023-08-02T06:41:06.584Z,985.36
2023-08-02T06:42:06.375Z,985.34
2023-08-02T06:43:06.680Z,985.29
2023-08-02T06:44:06.297Z,985.22
2023-08-02T06:45:05.514Z,985.18
2023-08-02T06:46:06.405Z,985.17
2023-08-02T06:47:06.337Z,985.13
2023-08-02T06:48:06.497Z,985.09
2023-08-02T06:49:06.419Z,985.08
2023-08-02T06:50:06.345Z,985.07
2023-08-02T06:51:06.407Z,985.04
2023-08-02T06:52:06.533Z,984.99
2023-08-02T06:53:06.220Z,984.93
2023-08-02T06:54:06.310Z,984.88
2023-08-02T06:55:06.461Z,984.85
2023-08-02T06:56:06.388Z,984.85
2023-08-02T06:57:05.276Z,984.86
2023-08-02T06:58:06.360Z,984.87
2023-08-02T06:59:07.517Z,984.90
2023-08-02T07:00:06.252Z,984.90
2023-08-02T07:01:06.292Z,984.89
2023-08-02T07:02:06.766Z,984.88
2023-08-02T07:03:06.300Z,984.89
2023-08-02T07:04:06.187Z,984.88
2023-08-02T07:05:08.395Z,984.89
2023-08-02T07:06:06.270Z,984.87
2023-08-02T07:07:06.296Z,984.87
2023-08-02T07:08:06.128Z,984.85
2023-08-02T07:09:06.036Z,984.80
2023-08-02T07:10:06.038Z,984.76
2023-08-02T07:11:06.021Z,984.74
2023-08-02T07:12:06.059Z,984.71
2023-08-02T07:13:06.175Z,984.70
2023-08-02T07:14:06.295Z,984.69
2023-08-02T07:15:06.115Z,984.70
2023-08-02T07:16:06.097Z,984.70
2023-08-02T07:17:06.142Z,984.70
2023-08-02T07:18:06.086Z,984.71
2023-08-02T07:19:06.093Z,984.70
2023-08-02T07:20:05.975Z,984.68
2023-08-02T07:21:06.012Z,984.71
2023-08-02T07:22:06.111Z,984.67
2023-08-02T07:23:06.252Z,984.63
2023-08-02T07:24:06.154Z,984.61
2023-08-02T07:25:06.492Z,984.58
2023-08-02T07:26:06.407Z,984.55
2023-08-02T07:27:06.087Z,984.53
2023-08-02T07:28:05.969Z,984.48
2023-08-02T07:29:06.239Z,984.43
2023-08-02T07:30:06.232Z,984.39
2023-08-02T07:31:15.529Z,984.35
2023-08-02T07:32:06.071Z,984.36
2023-08-02T07:33:07.414Z,984.35
2023-08-02T07:34:05.834Z,984.36
2023-08-02T07:35:07.041Z,984.35
2023-08-02T07:36:06.013Z,984.34
2023-08-02T07:37:06.363Z,984.33
2023-08-02T07:38:06.100Z,984.32
2023-08-02T07:39:06.009Z,984.31
2023-08-02T07:40:05.845Z,984.29
2023-08-02T07:41:06.201Z,984.26
2023-08-02T07:42:05.920Z,984.24
2023-08-02T07:43:05.765Z,984.21
2023-08-02T07:44:05.864Z,984.18
2023-08-02T07:45:06.006Z,984.14
2023-08-02T07:46:05.877Z,984.09
2023-08-02T07:47:05.829Z,984.07
2023-08-02T07:48:05.669Z,984.05
2023-08-02T07:49:05.785Z,984.02
2023-08-02T07:50:05.665Z,984.00
2023-08-02T07:51:05.722Z,983.96
2023-08-02T07:52:05.582Z,983.92
2023-08-02T07:53:05.936Z,983.88
2023-08-02T07:54:05.894Z,983.86
2023-08-02T07:55:05.772Z,983.83
2023-08-02T07:56:05.694Z,983.82
2023-08-02T07:57:05.831Z,983.80
2023-08-02T07:58:05.705Z,983.74
2023-08-02T07:59:05.684Z,983.73
2023-08-02T08:00:05.706Z,983.70
2023-08-02T08:01:06.064Z,983.69
2023-08-02T08:02:05.531Z,983.66
2023-08-02T08:03:05.474Z,983.64
2023-08-02T08:04:05.627Z,983.62
2023-08-02T08:05:05.713Z,983.61
2023-08-02T08:06:06.069Z,983.59
2023-08-02T08:07:06.348Z,983.59
2023-08-02T08:08:06.183Z,983.59
2023-08-02T08:09:05.458Z,983.54
2023-08-02T08:10:05.414Z,983.53
2023-08-02T08:11:05.366Z,983.51
2023-08-02T08:12:05.361Z,983.48
2023-08-02T08:13:05.323Z,983.47
2023-08-02T08:14:05.435Z,983.44
2023-08-02T08:15:05.411Z,983.41
2023-08-02T08:16:05.476Z,983.39
2023-08-02T08:17:05.465Z,983.39
2023-08-02T08:18:06.377Z,983.40
2023-08-02T08:19:05.303Z,983.40
2023-08-02T08:20:05.448Z,983.40
2023-08-02T08:21:05.756Z,983.39
2023-08-02T08:22:06.356Z,983.41
2023-08-02T08:23:05.331Z,983.39
2023-08-02T08:24:05.210Z,983.37
2023-08-02T08:25:05.237Z,983.34
2023-08-02T08:26:05.187Z,983.30
2023-08-02T08:27:05.178Z,983.24
2023-08-02T08:28:05.178Z,983.18
2023-08-02T08:29:05.145Z,983.13
2023-08-02T08:30:05.156Z,983.07
2023-08-02T08:31:05.184Z,983.03
2023-08-02T08:32:05.275Z,982.97
2023-08-02T08:33:05.182Z,982.97
2023-08-02T08:34:05.282Z,982.95
2023-08-02T08:35:05.196Z,982.92
2023-08-02T08:36:05.215Z,982.86
2023-08-02T08:37:05.432Z,982.86
2023-08-02T08:38:05.245Z,982.83
2023-08-02T08:39:05.273Z,982.79
2023-08-02T08:40:14.115Z,982.75
2023-08-02T08:41:05.128Z,982.71
2023-08-02T08:42:05.312Z,982.66
2023-08-02T08:43:05.291Z,982.63
2023-08-02T08:44:05.204Z,982.63
2023-08-02T08:45:05.141Z,982.66
2023-08-02T08:46:05.256Z,982.62
2023-08-02T08:47:05.171Z,982.61
2023-08-02T08:48:05.060Z,982.54
2023-08-02T08:49:05.023Z,982.51
2023-08-02T08:50:04.987Z,982.50
2023-08-02T08:51:05.359Z,982.49
2023-08-02T08:52:04.968Z,982.48
2023-08-02T08:53:05.018Z,982.42
2023-08-02T08:54:05.039Z,982.38
2023-08-02T08:55:04.904Z,982.35
2023-08-02T08:56:05.080Z,982.31
2023-08-02T08:57:05.373Z,982.24
2023-08-02T08:58:10.396Z,982.22
2023-08-02T08:59:04.955Z,982.17
2023-08-02T09:00:04.974Z,982.15
2023-08-02T09:01:05.065Z,982.12
2023-08-02T09:02:05.016Z,982.10
2023-08-02T09:03:05.001Z,982.08
2023-08-02T09:04:05.009Z,982.08
2023-08-02T09:05:04.852Z,982.06
2023-08-02T09:06:05.082Z,982.10
2023-08-02T09:07:04.775Z,982.10
2023-08-02T09:08:04.969Z,982.06
2023-08-02T09:09:04.752Z,982.10
2023-08-02T09:10:04.826Z,982.06
2023-08-02T09:11:04.810Z,982.07
2023-08-02T09:12:05.844Z,982.04
2023-08-02T09:13:05.092Z,982.00
2023-08-02T09:14:04.760Z,981.96
2023-08-02T09:15:04.709Z,981.94
2023-08-02T09:16:04.744Z,981.90
2023-08-02T09:17:04.835Z,981.86
2023-08-02T09:18:04.933Z,981.81
2023-08-02T09:19:04.694Z,981.79
2023-08-02T09:20:04.659Z,981.82
2023-08-02T09:21:05.360Z,981.78
2023-08-02T09:22:05.344Z,981.78
2023-08-02T09:23:05.486Z,981.78
2023-08-02T09:24:06.875Z,981.79
2023-08-02T09:25:04.711Z,981.80
2023-08-02T09:26:04.727Z,981.79
2023-08-02T09:27:04.743Z,981.82
2023-08-02T09:28:04.612Z,981.78
2023-08-02T09:29:04.720Z,981.80
2023-08-02T09:30:04.632Z,981.82
2023-08-02T09:31:05.391Z,981.83
2023-08-02T09:32:04.559Z,981.83
2023-08-02T09:33:06.973Z,981.82
2023-08-02T09:34:04.692Z,981.78
2023-08-02T09:35:04.548Z,981.79
2023-08-02T09:36:04.480Z,981.76
2023-08-02T09:37:04.515Z,981.72
2023-08-02T09:38:04.534Z,981.67
2023-08-02T09:39:04.435Z,981.65
2023-08-02T09:40:04.469Z,981.59
2023-08-02T09:42:05.270Z,981.56
2023-08-02T09:43:04.378Z,981.55
2023-08-02T09:44:04.466Z,981.53
2023-08-02T09:45:04.377Z,981.55
2023-08-02T09:46:04.408Z,981.54
2023-08-02T09:47:04.601Z,981.51
2023-08-02T09:48:04.414Z,981.46
2023-08-02T09:49:04.325Z,981.46
2023-08-02T09:50:04.662Z,981.45
2023-08-02T09:51:04.524Z,981.43
2023-08-02T09:52:04.344Z,981.39
2023-08-02T09:53:04.282Z,981.36
2023-08-02T09:54:04.270Z,981.36
2023-08-02T09:55:04.271Z,981.33
2023-08-02T09:56:04.237Z,981.34
2023-08-02T09:57:04.369Z,981.33
2023-08-02T09:58:04.191Z,981.28
2023-08-02T09:59:04.269Z,981.25
2023-08-02T10:00:04.177Z,981.24
2023-08-02T10:01:04.346Z,981.18
2023-08-02T10:02:04.323Z,981.17
2023-08-02T10:03:15.627Z,981.15
2023-08-02T10:04:04.150Z,981.11
2023-08-02T10:05:04.162Z,981.10
2023-08-02T10:06:04.205Z,981.09
2023-08-02T10:07:04.146Z,981.06
2023-08-02T10:08:04.146Z,981.03
2023-08-02T10:09:04.194Z,981.05
2023-08-02T10:10:04.076Z,981.03
2023-08-02T10:11:04.124Z,980.97
2023-08-02T10:12:04.067Z,980.95
2023-08-02T10:13:04.034Z,980.89
2023-08-02T10:14:04.084Z,980.86
2023-08-02T10:15:04.119Z,980.83
2023-08-02T10:16:04.072Z,980.80
2023-08-02T10:17:04.086Z,980.77
2023-08-02T10:18:04.036Z,980.71
2023-08-02T10:19:04.066Z,980.67
2023-08-02T10:20:04.045Z,980.62
2023-08-02T10:21:03.974Z,980.61
2023-08-02T10:22:04.074Z,980.62
2023-08-02T10:23:04.010Z,980.60
2023-08-02T10:24:03.961Z,980.62
2023-08-02T10:25:03.943Z,980.60
2023-08-02T10:26:03.973Z,980.58
2023-08-02T10:27:03.920Z,980.55
2023-08-02T10:28:04.146Z,980.51
2023-08-02T10:29:03.900Z,980.51
2023-08-02T10:30:03.879Z,980.47
2023-08-02T10:31:03.894Z,980.44
2023-08-02T10:32:03.890Z,980.44
2023-08-02T10:33:04.020Z,980.42
2023-08-02T10:34:03.862Z,980.42
2023-08-02T10:35:03.838Z,980.40
2023-08-02T10:36:03.844Z,980.37
2023-08-02T10:37:03.840Z,980.39
2023-08-02T10:38:03.776Z,980.37
2023-08-02T10:39:03.859Z,980.32
2023-08-02T10:40:03.872Z,980.28
2023-08-02T10:41:03.974Z,980.32
2023-08-02T10:42:03.798Z,980.24
2023-08-02T10:43:03.805Z,980.21
2023-08-02T10:44:03.760Z,980.18
2023-08-02T10:45:03.833Z,980.20
2023-08-02T10:46:03.741Z,980.21
2023-08-02T10:47:03.779Z,980.11
2023-08-02T10:48:03.842Z,980.14
2023-08-02T10:49:03.729Z,980.10
2023-08-02T10:50:03.671Z,980.08
2023-08-02T10:51:03.717Z,980.07
2023-08-02T10:52:03.689Z,980.06
2023-08-02T10:53:03.705Z,980.01
2023-08-02T10:54:03.861Z,979.99
2023-08-02T10:55:03.765Z,979.94
2023-08-02T10:56:03.654Z,979.84
2023-08-02T10:57:03.647Z,979.84
2023-08-02T10:58:03.621Z,979.85
2023-08-02T10:59:03.612Z,979.84
2023-08-02T11:00:04.154Z,979.85
2023-08-02T11:01:04.202Z,979.83
2023-08-02T11:02:03.634Z,979.81
2023-08-02T11:03:03.718Z,979.79
2023-08-02T11:04:03.680Z,979.79
2023-08-02T11:05:03.625Z,979.80
2023-08-02T11:06:03.552Z,979.80
2023-08-02T11:07:03.570Z,979.78
2023-08-02T11:08:03.538Z,979.76
2023-08-02T11:09:03.543Z,979.75
2023-08-02T11:10:03.678Z,979.74
2023-08-02T11:11:03.460Z,979.74
2023-08-02T11:12:03.643Z,979.74
2023-08-02T11:13:03.523Z,979.70
2023-08-02T11:14:03.447Z,979.73
2023-08-02T11:15:03.509Z,979.70
2023-08-02T11:16:03.630Z,979.69
2023-08-02T11:17:13.451Z,979.71
2023-08-02T11:18:03.661Z,979.68
2023-08-02T11:19:03.497Z,979.71
2023-08-02T11:20:06.722Z,979.72
2023-08-02T11:21:03.417Z,979.74
2023-08-02T11:22:03.351Z,979.75
2023-08-02T11:23:03.359Z,979.77
2023-08-02T11:24:03.352Z,979.78
2023-08-02T11:25:03.434Z,979.81
2023-08-02T11:27:03.675Z,979.78
2023-08-02T11:28:03.256Z,979.77
2023-08-02T11:29:03.330Z,979.74
2023-08-02T11:30:03.356Z,979.72
2023-08-02T11:31:03.685Z,979.69
2023-08-02T11:32:03.285Z,979.66
2023-08-02T11:33:03.339Z,979.65
2023-08-02T11:34:03.268Z,979.68
2023-08-02T11:35:03.244Z,979.63
2023-08-02T11:36:03.237Z,979.63
2023-08-02T11:37:03.174Z,979.65
2023-08-02T11:38:03.213Z,979.60
2023-08-02T11:39:03.540Z,979.67
2023-08-02T11:41:03.559Z,979.73
2023-08-02T11:42:03.226Z,979.73
2023-08-02T11:43:06.783Z,979.70
2023-08-02T11:44:03.154Z,979.70
2023-08-02T11:45:14.768Z,979.73
2023-08-02T11:46:03.323Z,979.75
2023-08-02T11:47:03.091Z,979.77
2023-08-02T11:49:03.150Z,979.65
2023-08-02T11:50:03.046Z,979.67
2023-08-02T11:51:03.254Z,979.66
2023-08-02T11:52:03.149Z,979.64
2023-08-02T11:53:03.092Z,979.60
2023-08-02T11:54:03.036Z,979.59
2023-08-02T11:55:03.019Z,979.55
2023-08-02T11:56:03.020Z,979.57
2023-08-02T11:57:03.054Z,979.59
2023-08-02T11:58:02.970Z,979.53
2023-08-02T11:59:03.124Z,979.50
2023-08-02T12:00:02.915Z,979.50
2023-08-02T12:01:02.958Z,979.47
2023-08-02T12:02:03.026Z,979.46
2023-08-02T12:03:03.017Z,979.42
2023-08-02T12:04:02.946Z,979.46
2023-08-02T12:05:02.900Z,979.41
2023-08-02T12:06:02.998Z,979.36
2023-08-02T12:07:02.915Z,979.33
2023-08-02T12:08:02.905Z,979.30
2023-08-02T12:09:03.536Z,979.35
2023-08-02T12:10:02.892Z,979.22
2023-08-02T12:11:02.815Z,979.25
2023-08-02T12:12:02.833Z,979.25
2023-08-02T12:13:02.864Z,979.25
2023-08-02T12:14:02.769Z,979.20
2023-08-02T12:15:02.840Z,979.14
2023-08-02T12:16:03.065Z,979.12
2023-08-02T12:17:02.859Z,979.12
2023-08-02T12:18:02.818Z,979.08
2023-08-02T12:19:02.825Z,979.08
2023-08-02T12:20:02.747Z,979.04
2023-08-02T12:21:02.817Z,979.04
2023-08-02T12:22:02.865Z,978.99
2023-08-02T12:23:02.734Z,979.02
2023-08-02T12:24:02.742Z,979.01
2023-08-02T12:25:02.731Z,979.00
2023-08-02T12:26:02.769Z,979.00
2023-08-02T12:27:02.689Z,978.95
2023-08-02T12:28:02.671Z,978.96
2023-08-02T12:29:02.743Z,978.89
2023-08-02T12:30:02.671Z,978.88
2023-08-02T12:31:02.670Z,978.92
2023-08-02T12:32:02.669Z,978.77
2023-08-02T12:33:02.691Z,978.85
2023-08-02T12:34:02.619Z,978.88
2023-08-02T12:35:11.744Z,978.82
2023-08-02T12:36:02.657Z,978.79
2023-08-02T12:37:02.588Z,978.80
2023-08-02T12:38:02.603Z,978.78
2023-08-02T12:39:02.535Z,978.75
2023-08-02T12:40:02.581Z,978.72
2023-08-02T12:41:02.589Z,978.71
2023-08-02T12:42:02.475Z,978.74
2023-08-02T12:43:03.648Z,978.66
2023-08-02T12:44:05.725Z,978.59
2023-08-02T12:45:15.292Z,978.59
2023-08-02T12:46:02.510Z,978.56
2023-08-02T12:47:02.444Z,978.57
2023-08-02T12:48:02.677Z,978.57
2023-08-02T12:49:02.416Z,978.54
2023-08-02T12:50:02.669Z,978.52
2023-08-02T12:51:02.464Z,978.46
2023-08-02T12:52:02.386Z,978.36
2023-08-02T12:53:02.503Z,978.23
2023-08-02T12:54:02.608Z,978.15
2023-08-02T12:55:02.398Z,978.11
2023-08-02T12:56:02.391Z,978.09
2023-08-02T12:57:02.462Z,978.05
2023-08-02T12:58:02.402Z,978.14
2023-08-02T12:59:02.576Z,978.19
2023-08-02T13:00:02.486Z,978.24
2023-08-02T13:01:02.529Z,978.24
2023-08-02T13:02:02.329Z,978.22
2023-08-02T13:03:02.420Z,978.19
2023-08-02T13:04:02.420Z,978.22
2023-08-02T13:05:02.327Z,978.28
2023-08-02T13:06:02.481Z,978.32
2023-08-02T13:07:02.539Z,978.27
2023-08-02T13:08:02.241Z,978.21
2023-08-02T13:09:02.207Z,978.20
2023-08-02T13:10:02.175Z,978.22
2023-08-02T13:11:02.634Z,978.20
2023-08-02T13:12:08.213Z,978.17
2023-08-02T13:13:02.243Z,978.11
2023-08-02T13:14:02.282Z,978.08
2023-08-02T13:15:02.236Z,977.98
2023-08-02T13:16:02.934Z,977.88
2023-08-02T13:17:02.156Z,977.76
2023-08-02T13:18:02.233Z,977.83
2023-08-02T13:19:02.136Z,977.99
2023-08-02T13:20:02.154Z,978.12
2023-08-02T13:21:02.595Z,978.17
2023-08-02T13:22:02.280Z,978.16
2023-08-02T13:23:02.175Z,978.10
2023-08-02T13:24:02.151Z,978.03
2023-08-02T13:25:02.247Z,978.01
2023-08-02T13:26:02.056Z,978.01
2023-08-02T13:27:02.388Z,978.01
2023-08-02T13:28:02.064Z,977.99
2023-08-02T13:29:02.013Z,977.93
2023-08-02T13:30:02.228Z,977.92
2023-08-02T13:31:02.281Z,977.95
2023-08-02T13:32:02.112Z,977.85
2023-08-02T13:33:02.042Z,977.75
2023-08-02T13:34:02.069Z,977.68
2023-08-02T13:35:04.237Z,977.69
2023-08-02T13:36:02.022Z,977.72
2023-08-02T13:37:01.954Z,977.73
2023-08-02T13:38:02.140Z,977.73
2023-08-02T13:39:01.933Z,977.75
2023-08-02T13:40:02.125Z,977.74
2023-08-02T13:41:01.943Z,977.74
2023-08-02T13:42:01.941Z,977.72
2023-08-02T13:43:02.228Z,977.76
2023-08-02T13:44:01.887Z,977.66
2023-08-02T13:45:01.886Z,977.58
2023-08-02T13:46:01.902Z,977.59
2023-08-02T13:47:01.888Z,977.60
2023-08-02T13:48:01.952Z,977.62
2023-08-02T13:49:02.001Z,977.63
2023-08-02T13:50:01.921Z,977.60
2023-08-02T13:51:01.972Z,977.57
2023-08-02T13:52:01.804Z,977.64
2023-08-02T13:53:01.733Z,977.64
2023-08-02T13:54:01.803Z,977.65
2023-08-02T13:55:01.770Z,977.61
2023-08-02T13:56:01.841Z,977.62
2023-08-02T13:57:01.762Z,977.64
2023-08-02T13:58:01.715Z,977.68
2023-08-02T13:59:04.269Z,977.67
2023-08-02T14:00:01.735Z,977.72
2023-08-02T14:01:02.063Z,977.72
2023-08-02T14:02:01.668Z,977.72
2023-08-02T14:03:01.936Z,977.68
2023-08-02T14:04:01.873Z,977.65
2023-08-02T14:05:02.395Z,977.73
2023-08-02T14:06:01.788Z,977.76
2023-08-02T14:07:01.658Z,977.79
2023-08-02T14:08:01.670Z,977.83
2023-08-02T14:09:01.847Z,977.84
2023-08-02T14:10:01.598Z,977.86
2023-08-02T14:11:01.624Z,977.87
2023-08-02T14:12:01.692Z,977.92
2023-08-02T14:13:01.591Z,977.93
2023-08-02T14:14:01.729Z,977.99
2023-08-02T14:15:01.660Z,977.83
2023-08-02T14:16:01.520Z,977.99
2023-08-02T14:17:01.758Z,978.06
2023-08-02T14:18:01.641Z,978.02
2023-08-02T14:19:01.506Z,978.10
2023-08-02T14:20:01.505Z,978.08
2023-08-02T14:21:01.557Z,978.00
2023-08-02T14:22:01.720Z,978.01
2023-08-02T14:23:01.687Z,977.91
2023-08-02T14:24:01.561Z,977.87
2023-08-02T14:25:01.945Z,977.87
2023-08-02T14:26:01.519Z,977.87
2023-08-02T14:27:01.456Z,977.88
2023-08-02T14:28:01.621Z,977.94
2023-08-02T14:29:01.330Z,978.21
2023-08-02T14:30:01.660Z,978.25
2023-08-02T14:31:01.430Z,978.20
2023-08-02T14:32:01.535Z,978.15
2023-08-02T14:33:01.370Z,978.12
2023-08-02T14:34:01.505Z,978.12
2023-08-02T14:35:01.416Z,978.16
2023-08-02T14:36:01.334Z,978.20
2023-08-02T14:37:01.646Z,978.17
2023-08-02T14:38:01.297Z,978.17
2023-08-02T14:39:01.242Z,978.20
2023-08-02T14:40:01.288Z,978.22
2023-08-02T14:41:01.308Z,978.14
2023-08-02T14:42:01.444Z,978.06
2023-08-02T14:43:01.227Z,978.14
2023-08-02T14:44:01.286Z,978.15
2023-08-02T14:45:01.218Z,978.21
2023-08-02T14:46:03.529Z,978.20
2023-08-02T14:47:01.363Z,978.26
2023-08-02T14:48:01.422Z,978.25
2023-08-02T14:49:01.184Z,978.31
2023-08-02T14:50:01.436Z,978.30
2023-08-02T14:51:01.221Z,978.31
2023-08-02T14:52:01.347Z,978.30
2023-08-02T14:53:01.066Z,978.27
2023-08-02T14:54:12.502Z,978.18
2023-08-02T14:55:01.388Z,978.09
2023-08-02T14:56:01.065Z,978.17
2023-08-02T14:57:01.068Z,978.22
2023-08-02T14:58:01.221Z,978.27
2023-08-02T14:59:01.033Z,978.28
2023-08-02T15:00:01.337Z,978.26
2023-08-02T15:01:01.187Z,978.27
2023-08-02T15:02:01.171Z,978.29
2023-08-02T15:03:00.987Z,978.28
2023-08-02T15:04:01.148Z,978.27
2023-08-02T15:05:01.253Z,978.31
2023-08-02T15:06:01.413Z,978.33
2023-08-02T15:07:01.032Z,978.34
2023-08-02T15:08:01.140Z,978.29
2023-08-02T15:09:01.176Z,978.26
2023-08-02T15:10:01.182Z,978.21
2023-08-02T15:11:01.233Z,978.18
2023-08-02T15:12:00.985Z,978.15
2023-08-02T15:13:01.104Z,978.18
2023-08-02T15:14:00.995Z,978.16
2023-08-02T15:15:01.134Z,978.16
2023-08-02T15:16:01.136Z,978.15
2023-08-02T15:17:01.063Z,978.15
2023-08-02T15:18:00.840Z,978.14
2023-08-02T15:19:01.058Z,978.20
2023-08-02T15:20:01.056Z,978.25
2023-08-02T15:21:00.776Z,978.24
2023-08-02T15:22:00.966Z,978.23
2023-08-02T15:23:00.950Z,978.13
2023-08-02T15:24:01.285Z,978.09
2023-08-02T15:25:00.834Z,978.03
2023-08-02T15:26:00.885Z,977.96
2023-08-02T15:27:00.777Z,977.93
2023-08-02T15:28:00.859Z,977.92
2023-08-02T15:29:02.280Z,977.92
2023-08-02T15:30:00.991Z,977.89
2023-08-02T15:31:00.990Z,977.87
2023-08-02T15:32:01.010Z,977.91
2023-08-02T15:33:00.806Z,977.85
2023-08-02T15:34:00.767Z,977.90
2023-08-02T15:35:00.668Z,977.98
2023-08-02T15:36:00.644Z,978.01
2023-08-02T15:37:00.743Z,978.04
2023-08-02T15:38:00.692Z,978.00
2023-08-02T15:39:00.605Z,978.04
2023-08-02T15:40:00.623Z,978.04
2023-08-02T15:41:00.660Z,978.02
2023-08-02T15:42:00.652Z,977.92
2023-08-02T15:43:00.707Z,977.89
2023-08-02T15:44:00.660Z,977.89
2023-08-02T15:45:02.960Z,977.90
2023-08-02T15:46:00.805Z,977.83
2023-08-02T15:47:00.732Z,977.77
2023-08-02T15:48:00.662Z,977.73
2023-08-02T15:49:00.697Z,977.76
2023-08-02T15:50:00.671Z,977.71
2023-08-02T15:51:00.672Z,977.70
2023-08-02T15:52:00.549Z,977.75
2023-08-02T15:53:00.802Z,977.77
2023-08-02T15:54:00.690Z,977.75
2023-08-02T15:55:00.575Z,977.73
2023-08-02T15:56:00.670Z,977.71
2023-08-02T15:57:00.989Z,977.79
2023-08-02T15:58:00.615Z,977.85
2023-08-02T15:59:00.562Z,977.87
2023-08-02T16:00:00.487Z,977.85
2023-08-02T16:01:00.513Z,977.85
2023-08-02T16:02:00.519Z,977.82
2023-08-02T16:03:01.148Z,977.85
2023-08-02T16:04:00.570Z,977.84
2023-08-02T16:05:00.672Z,977.83
2023-08-02T16:06:00.438Z,977.84
2023-08-02T16:07:00.418Z,977.87
2023-08-02T16:08:00.379Z,977.89
2023-08-02T16:09:00.507Z,977.85
2023-08-02T16:10:00.464Z,977.83
2023-08-02T16:11:00.293Z,977.80
2023-08-02T16:12:00.243Z,977.80
2023-08-02T16:13:00.240Z,977.77
2023-08-02T16:14:00.253Z,977.76
2023-08-02T16:15:00.422Z,977.71
2023-08-02T16:16:00.240Z,977.68
2023-08-02T16:17:00.191Z,977.71
2023-08-02T16:18:00.251Z,977.70
2023-08-02T16:19:00.221Z,977.67
2023-08-02T16:20:00.291Z,977.64
2023-08-02T16:21:00.219Z,977.63
2023-08-02T16:22:00.167Z,977.63
2023-08-02T16:23:00.116Z,977.65
2023-08-02T16:24:00.096Z,977.67
2023-08-02T16:25:00.186Z,977.68
2023-08-02T16:26:00.114Z,977.61
2023-08-02T16:27:01.094Z,977.62
2023-08-02T16:28:00.056Z,977.60
2023-08-02T16:29:00.252Z,977.63
2023-08-02T16:30:00.255Z,977.68
2023-08-02T16:31:00.176Z,977.74
2023-08-02T16:32:00.875Z,977.80
2023-08-02T16:33:00.097Z,977.81